createdAt,value
2022-12-26T00:01:08.593Z,5.60
2022-12-26T00:03:36.681Z,6.00
2022-12-26T00:06:04.969Z,5.93
2022-12-26T00:08:32.294Z,5.40
2022-12-26T00:10:59.658Z,4.13
2022-12-26T00:13:38.861Z,5.50
2022-12-26T00:16:09.015Z,4.87
2022-12-26T00:18:36.580Z,3.80
2022-12-26T00:21:04.346Z,3.23
2022-12-26T00:23:33.567Z,4.77
2022-12-26T00:26:10.299Z,4.27
2022-12-26T00:28:38.459Z,1.83
2022-12-26T00:31:07.794Z,2.83
2022-12-26T00:33:36.009Z,4.57
2022-12-26T00:36:06.315Z,3.70
2022-12-26T00:38:35.955Z,4.30
2022-12-26T00:41:04.197Z,4.10
2022-12-26T00:43:32.101Z,4.47
2022-12-26T00:46:00.635Z,4.10
2022-12-26T00:48:29.037Z,4.40
2022-12-26T00:50:56.519Z,3.03
2022-12-26T00:53:24.698Z,3.10
2022-12-26T00:55:52.112Z,3.60
2022-12-26T00:58:20.848Z,3.30
2022-12-26T01:00:49.022Z,3.80
2022-12-26T01:03:16.680Z,3.53
2022-12-26T01:05:46.356Z,2.93
2022-12-26T01:08:21.146Z,3.37
2022-12-26T01:10:52.056Z,2.93
2022-12-26T01:13:19.779Z,3.30
2022-12-26T01:15:52.701Z,3.67
2022-12-26T01:18:21.062Z,3.50
2022-12-26T01:20:49.259Z,3.20
2022-12-26T01:23:17.420Z,3.50
2022-12-26T01:26:17.794Z,3.00
2022-12-26T01:28:32.249Z,3.40
2022-12-26T01:31:06.614Z,3.43
2022-12-26T01:33:34.356Z,3.30
2022-12-26T01:36:01.846Z,3.17
2022-12-26T01:38:29.178Z,3.47
2022-12-26T01:41:15.283Z,3.53
2022-12-26T01:43:48.615Z,3.30
2022-12-26T01:46:17.953Z,3.27
2022-12-26T01:48:46.342Z,3.20
2022-12-26T01:51:15.079Z,3.30
2022-12-26T01:53:52.372Z,3.70
2022-12-26T01:56:26.276Z,2.77
2022-12-26T01:59:02.731Z,3.53
2022-12-26T02:01:33.503Z,2.57
2022-12-26T02:04:23.786Z,3.20
2022-12-26T02:06:51.383Z,2.83
2022-12-26T02:09:19.410Z,2.73
2022-12-26T02:12:34.683Z,2.40
2022-12-26T02:14:57.511Z,2.50
2022-12-26T02:17:26.400Z,2.43
2022-12-26T02:20:17.537Z,2.50
2022-12-26T02:23:06.752Z,2.43
2022-12-26T02:25:52.482Z,1.97
2022-12-26T02:28:32.268Z,2.67
2022-12-26T02:31:08.124Z,2.20
2022-12-26T02:33:40.483Z,2.07
2022-12-26T02:36:30.967Z,2.80
2022-12-26T02:39:46.678Z,2.20
2022-12-26T02:42:51.333Z,2.40
2022-12-26T02:45:50.273Z,3.00
2022-12-26T02:48:27.832Z,3.23
2022-12-26T02:51:37.227Z,2.17
2022-12-26T02:54:47.065Z,2.43
2022-12-26T02:57:40.656Z,3.10
2022-12-26T03:00:38.513Z,3.30
2022-12-26T03:03:43.551Z,3.60
2022-12-26T03:06:36.494Z,3.20
2022-12-26T03:09:26.096Z,3.47
2022-12-26T03:12:18.437Z,2.93
2022-12-26T03:14:56.467Z,3.90
2022-12-26T03:17:42.693Z,3.67
2022-12-26T03:20:25.778Z,3.70
2022-12-26T03:23:15.885Z,3.50
2022-12-26T03:26:10.447Z,4.17
2022-12-26T03:28:39.130Z,4.07
2022-12-26T03:31:09.582Z,3.63
2022-12-26T03:34:01.371Z,4.80
2022-12-26T03:36:50.349Z,3.30
2022-12-26T03:40:14.396Z,4.63
2022-12-26T03:43:28.511Z,3.97
2022-12-26T03:46:43.670Z,4.50
2022-12-26T03:49:44.711Z,4.80
2022-12-26T03:52:30.633Z,4.57
2022-12-26T03:55:38.144Z,4.37
2022-12-26T03:58:40.415Z,5.77
2022-12-26T04:01:33.665Z,4.87
2022-12-26T04:04:21.873Z,5.47
2022-12-26T04:07:18.249Z,5.63
2022-12-26T04:10:23.400Z,5.50
2022-12-26T04:13:11.924Z,5.73
2022-12-26T04:16:24.721Z,5.77
2022-12-26T04:19:26.863Z,5.73
2022-12-26T04:22:54.453Z,5.33
2022-12-26T04:25:48.971Z,5.83
2022-12-26T04:28:38.875Z,6.30
2022-12-26T04:31:33.179Z,5.83
2022-12-26T04:34:26.423Z,5.53
2022-12-26T04:37:16.971Z,6.10
2022-12-26T04:40:07.058Z,5.60
2022-12-26T04:42:54.246Z,6.07
2022-12-26T04:45:23.015Z,6.57
2022-12-26T04:48:20.448Z,6.47
2022-12-26T04:50:51.970Z,5.07
2022-12-26T04:53:20.533Z,4.97
2022-12-26T04:55:48.344Z,5.70
2022-12-26T04:58:16.068Z,5.70
2022-12-26T05:00:43.547Z,6.27
2022-12-26T05:03:32.384Z,6.13
2022-12-26T05:06:18.413Z,5.70
2022-12-26T05:09:05.890Z,6.30
2022-12-26T05:11:34.785Z,6.27
2022-12-26T05:14:02.190Z,5.70
2022-12-26T05:16:48.194Z,5.43
2022-12-26T05:19:36.570Z,6.63
2022-12-26T05:22:24.152Z,7.07
2022-12-26T05:25:11.459Z,5.87
2022-12-26T05:28:01.438Z,6.30
2022-12-26T05:30:29.374Z,5.63
2022-12-26T05:33:15.612Z,6.43
2022-12-26T05:35:43.071Z,6.40
2022-12-26T05:38:12.064Z,5.07
2022-12-26T05:40:39.501Z,6.63
2022-12-26T05:43:06.791Z,6.47
2022-12-26T05:45:34.101Z,6.53
2022-12-26T05:48:02.579Z,6.17
2022-12-26T05:50:30.185Z,5.20
2022-12-26T05:52:58.882Z,5.50
2022-12-26T05:55:26.675Z,6.20
2022-12-26T05:57:54.041Z,4.50
2022-12-26T06:00:21.661Z,5.90
2022-12-26T06:02:49.345Z,5.47
2022-12-26T06:05:17.139Z,6.37
2022-12-26T06:07:44.641Z,6.57
2022-12-26T06:10:12.144Z,6.53
2022-12-26T06:12:39.504Z,5.90
2022-12-26T06:15:07.577Z,6.00
2022-12-26T06:17:35.019Z,5.27
2022-12-26T06:20:02.648Z,4.67
2022-12-26T06:22:30.479Z,4.47
2022-12-26T06:24:57.855Z,4.47
2022-12-26T06:27:25.179Z,4.60
2022-12-26T06:29:52.524Z,5.10
2022-12-26T06:32:20.102Z,4.67
2022-12-26T06:34:48.276Z,5.00
2022-12-26T06:37:17.058Z,2.30
2022-12-26T06:39:44.379Z,2.83
2022-12-26T06:42:11.875Z,4.10
2022-12-26T06:44:39.355Z,4.00
2022-12-26T06:47:06.851Z,4.30
2022-12-26T06:49:34.317Z,4.17
2022-12-26T06:52:01.623Z,3.20
2022-12-26T06:54:29.008Z,3.90
2022-12-26T06:56:56.531Z,3.70
2022-12-26T06:59:24.091Z,4.50
2022-12-26T07:01:51.675Z,3.77
2022-12-26T07:04:19.173Z,3.60
2022-12-26T07:06:46.949Z,3.63
2022-12-26T07:09:17.242Z,3.57
2022-12-26T07:11:47.358Z,3.57
2022-12-26T07:14:15.731Z,3.60
2022-12-26T07:16:44.784Z,2.77
2022-12-26T07:19:14.294Z,2.77
2022-12-26T07:21:42.544Z,3.70
2022-12-26T07:24:21.968Z,3.90
2022-12-26T07:26:50.022Z,4.30
2022-12-26T07:29:18.094Z,3.90
2022-12-26T07:31:45.561Z,4.37
2022-12-26T07:34:13.240Z,4.60
2022-12-26T07:36:41.474Z,3.93
2022-12-26T07:39:09.262Z,4.03
2022-12-26T07:41:57.295Z,4.53
2022-12-26T07:44:26.169Z,3.93
2022-12-26T07:46:53.721Z,4.00
2022-12-26T07:49:21.085Z,4.23
2022-12-26T07:51:49.039Z,4.73
2022-12-26T07:54:16.700Z,4.60
2022-12-26T07:56:44.017Z,4.73
2022-12-26T07:59:18.358Z,4.20
2022-12-26T08:01:45.985Z,3.60
2022-12-26T08:04:14.179Z,4.30
2022-12-26T08:06:41.706Z,4.80
2022-12-26T08:09:16.040Z,4.77
2022-12-26T08:11:44.302Z,4.83
2022-12-26T08:14:13.517Z,4.03
2022-12-26T08:16:41.044Z,4.37
2022-12-26T08:19:08.799Z,3.53
2022-12-26T08:21:36.224Z,3.90
2022-12-26T08:24:03.764Z,4.50
2022-12-26T08:26:31.096Z,3.47
2022-12-26T08:29:01.061Z,3.80
2022-12-26T08:31:28.881Z,3.97
2022-12-26T08:33:57.912Z,4.63
2022-12-26T08:36:25.663Z,5.10
2022-12-26T08:38:53.363Z,4.53
2022-12-26T08:41:20.997Z,3.57
2022-12-26T08:44:25.777Z,4.23
2022-12-26T08:46:40.047Z,3.47
2022-12-26T08:49:07.476Z,3.43
2022-12-26T08:51:34.841Z,4.03
2022-12-26T08:54:02.681Z,3.27
2022-12-26T08:56:30.315Z,3.30
2022-12-26T08:58:58.056Z,3.53
2022-12-26T09:01:28.384Z,3.37
2022-12-26T09:04:00.799Z,3.27
2022-12-26T09:06:29.933Z,2.70
2022-12-26T09:08:59.614Z,3.80
2022-12-26T09:11:27.827Z,2.43
2022-12-26T09:13:57.132Z,2.33
2022-12-26T09:16:30.454Z,2.57
2022-12-26T09:19:02.213Z,2.50
2022-12-26T09:21:30.129Z,2.80
2022-12-26T09:23:59.073Z,2.10
2022-12-26T09:26:26.831Z,2.10
2022-12-26T09:28:54.612Z,2.53
2022-12-26T09:31:27.885Z,2.37
2022-12-26T09:33:55.859Z,2.27
2022-12-26T09:36:30.739Z,1.93
2022-12-26T09:38:59.655Z,3.00
2022-12-26T09:41:45.486Z,2.50
2022-12-26T09:44:28.035Z,2.30
2022-12-26T09:47:07.851Z,1.60
2022-12-26T09:49:42.426Z,2.47
2022-12-26T09:52:17.711Z,2.40
2022-12-26T09:54:56.457Z,2.10
2022-12-26T09:57:40.049Z,2.20
2022-12-26T10:00:12.734Z,1.80
2022-12-26T10:02:40.221Z,1.53
2022-12-26T10:05:08.225Z,1.87
2022-12-26T10:07:48.844Z,2.37
2022-12-26T10:10:49.775Z,2.40
2022-12-26T10:13:25.486Z,2.13
2022-12-26T10:15:55.810Z,2.27
2022-12-26T10:18:41.837Z,1.80
2022-12-26T10:21:24.392Z,1.93
2022-12-26T10:24:04.231Z,1.40
2022-12-26T10:26:46.444Z,2.50
2022-12-26T10:29:22.176Z,1.33
2022-12-26T10:31:52.481Z,2.20
2022-12-26T10:34:31.255Z,1.40
2022-12-26T10:37:18.560Z,2.00
2022-12-26T10:39:50.428Z,2.07
2022-12-26T10:42:29.297Z,2.10
2022-12-26T10:44:58.209Z,2.00
2022-12-26T10:47:32.882Z,2.40
2022-12-26T10:50:00.367Z,1.40
2022-12-26T10:52:35.337Z,1.97
2022-12-26T10:55:28.144Z,2.20
2022-12-26T10:57:53.248Z,2.20
2022-12-26T11:00:26.692Z,1.93
2022-12-26T11:03:06.270Z,1.63
2022-12-26T11:06:06.349Z,1.40
2022-12-26T11:08:51.698Z,2.23
2022-12-26T11:11:46.398Z,1.57
2022-12-26T11:14:36.757Z,1.80
2022-12-26T11:17:27.023Z,2.13
2022-12-26T11:20:15.019Z,2.17
2022-12-26T11:22:43.591Z,2.50
2022-12-26T11:25:13.635Z,2.40
2022-12-26T11:27:50.988Z,2.17
2022-12-26T11:30:26.061Z,2.40
2022-12-26T11:33:31.687Z,2.73
2022-12-26T11:36:16.958Z,1.90
2022-12-26T11:38:54.639Z,2.40
2022-12-26T11:41:36.262Z,1.17
2022-12-26T11:44:09.825Z,1.93
2022-12-26T11:46:51.210Z,1.23
2022-12-26T11:49:24.225Z,2.40
2022-12-26T11:51:58.696Z,2.17
2022-12-26T11:54:35.735Z,1.97
2022-12-26T11:57:22.385Z,2.20
2022-12-26T11:59:51.741Z,2.23
2022-12-26T12:02:24.458Z,2.00
2022-12-26T12:04:54.981Z,2.10
2022-12-26T12:07:48.565Z,2.47
2022-12-26T12:10:34.523Z,2.07
2022-12-26T12:13:15.814Z,2.87
2022-12-26T12:16:08.435Z,1.90
2022-12-26T12:19:02.037Z,2.53
2022-12-26T12:22:02.271Z,2.30
2022-12-26T12:25:21.226Z,2.43
2022-12-26T12:28:20.531Z,2.60
2022-12-26T12:30:57.722Z,2.57
2022-12-26T12:33:34.069Z,2.17
2022-12-26T12:36:11.385Z,2.57
2022-12-26T12:38:41.960Z,2.10
2022-12-26T12:41:25.965Z,2.67
2022-12-26T12:44:14.969Z,2.50
2022-12-26T12:47:03.373Z,2.10
2022-12-26T12:49:48.988Z,2.40
2022-12-26T12:52:31.451Z,2.20
2022-12-26T12:55:20.637Z,2.23
2022-12-26T12:57:58.773Z,2.77
2022-12-26T13:00:31.996Z,2.93
2022-12-26T13:03:11.341Z,3.13
2022-12-26T13:05:48.471Z,3.03
2022-12-26T13:08:22.827Z,3.07
2022-12-26T13:11:10.705Z,3.67
2022-12-26T13:13:53.196Z,3.50
2022-12-26T13:16:36.109Z,2.90
2022-12-26T13:19:07.427Z,3.30
2022-12-26T13:21:38.839Z,3.13
2022-12-26T13:24:25.353Z,2.37
2022-12-26T13:27:14.001Z,2.60
2022-12-26T13:29:43.935Z,2.93
2022-12-26T13:32:28.114Z,3.03
2022-12-26T13:34:58.245Z,3.97
2022-12-26T13:37:40.688Z,3.00
2022-12-26T13:40:18.348Z,4.00
2022-12-26T13:43:09.797Z,3.60
2022-12-26T13:45:43.029Z,3.17
2022-12-26T13:48:16.708Z,3.03
2022-12-26T13:51:05.104Z,2.77
2022-12-26T13:53:37.307Z,2.50
2022-12-26T13:56:37.658Z,2.87
2022-12-26T13:59:08.506Z,3.03
2022-12-26T14:01:55.784Z,2.50
2022-12-26T14:05:01.015Z,2.50
2022-12-26T14:07:44.203Z,2.00
2022-12-26T14:10:24.816Z,2.33
2022-12-26T14:13:01.152Z,2.70
2022-12-26T14:15:42.543Z,3.23
2022-12-26T14:18:15.431Z,3.03
2022-12-26T14:21:17.823Z,3.03
2022-12-26T14:24:12.614Z,3.00
2022-12-26T14:27:11.288Z,2.30
2022-12-26T14:29:58.193Z,2.40
2022-12-26T14:32:44.231Z,2.70
2022-12-26T14:35:31.926Z,2.73
2022-12-26T14:38:24.039Z,1.80
2022-12-26T14:41:32.356Z,2.00
2022-12-26T14:44:38.333Z,2.67
2022-12-26T14:47:06.138Z,2.07
2022-12-26T14:49:35.905Z,2.40
2022-12-26T14:52:25.233Z,2.77
2022-12-26T14:54:53.564Z,2.23
2022-12-26T14:57:42.423Z,2.00
2022-12-26T15:00:30.924Z,1.93
2022-12-26T15:03:04.109Z,2.20
2022-12-26T15:05:38.431Z,2.70
2022-12-26T15:08:38.004Z,2.83
2022-12-26T15:11:14.559Z,2.33
2022-12-26T15:14:04.542Z,2.23
2022-12-26T15:16:37.639Z,2.30
2022-12-26T15:19:35.368Z,2.43
2022-12-26T15:22:08.493Z,2.40
2022-12-26T15:25:19.911Z,2.50
2022-12-26T15:27:56.851Z,1.97
2022-12-26T15:30:49.563Z,2.43
2022-12-26T15:33:40.817Z,1.67
2022-12-26T15:36:14.547Z,1.80
2022-12-26T15:39:03.154Z,1.90
2022-12-26T15:41:33.340Z,1.90
2022-12-26T15:44:00.969Z,1.87
2022-12-26T15:46:35.980Z,1.87
2022-12-26T15:49:23.760Z,2.00
2022-12-26T15:52:28.520Z,1.93
2022-12-26T15:55:01.918Z,1.83
2022-12-26T15:58:04.794Z,2.10
2022-12-26T16:00:53.193Z,1.70
2022-12-26T16:03:32.601Z,1.93
2022-12-26T16:06:22.023Z,2.40
2022-12-26T16:09:03.534Z,2.13
2022-12-26T16:11:47.903Z,2.00
2022-12-26T16:14:25.739Z,1.53
2022-12-26T16:16:53.461Z,2.10
2022-12-26T16:19:27.914Z,2.40
2022-12-26T16:22:20.141Z,1.60
2022-12-26T16:24:51.507Z,1.80
2022-12-26T16:27:21.949Z,1.20
2022-12-26T16:30:11.392Z,1.77
2022-12-26T16:32:43.148Z,1.10
2022-12-26T16:35:43.630Z,1.70
2022-12-26T16:38:17.640Z,1.67
2022-12-26T16:40:47.812Z,1.43
2022-12-26T16:43:18.182Z,1.70
2022-12-26T16:45:48.872Z,1.43
2022-12-26T16:48:19.990Z,1.40
2022-12-26T16:50:54.277Z,1.23
2022-12-26T16:53:35.782Z,0.97
2022-12-26T16:56:22.116Z,1.50
2022-12-26T16:58:55.020Z,1.50
2022-12-26T17:01:22.963Z,1.60
2022-12-26T17:03:50.452Z,1.63
2022-12-26T17:06:30.068Z,1.33
2022-12-26T17:09:04.922Z,1.60
2022-12-26T17:11:36.463Z,1.80
2022-12-26T17:14:08.417Z,1.40
2022-12-26T17:16:36.067Z,1.27
2022-12-26T17:19:11.744Z,1.30
2022-12-26T17:21:39.339Z,1.07
2022-12-26T17:24:09.784Z,1.97
2022-12-26T17:26:38.757Z,1.70
2022-12-26T17:29:06.528Z,1.53
2022-12-26T17:31:44.845Z,1.73
2022-12-26T17:34:25.876Z,1.60
2022-12-26T17:37:18.434Z,1.57
2022-12-26T17:39:41.877Z,1.70
2022-12-26T17:42:12.817Z,1.30
2022-12-26T17:44:42.987Z,1.40
2022-12-26T17:47:21.287Z,1.73
2022-12-26T17:49:50.269Z,1.50
2022-12-26T17:52:20.975Z,1.47
2022-12-26T17:54:50.858Z,1.67
2022-12-26T17:57:22.194Z,1.40
2022-12-26T17:59:51.129Z,1.40
2022-12-26T18:02:20.144Z,1.53
2022-12-26T18:04:48.645Z,1.60
2022-12-26T18:07:31.050Z,1.30
2022-12-26T18:10:03.547Z,1.37
2022-12-26T18:12:30.996Z,1.13
2022-12-26T18:15:01.990Z,1.27
2022-12-26T18:17:33.317Z,1.13
2022-12-26T18:20:01.896Z,1.40
2022-12-26T18:22:29.415Z,1.27
2022-12-26T18:24:56.755Z,1.50
2022-12-26T18:27:31.118Z,1.50
2022-12-26T18:29:59.802Z,1.53
2022-12-26T18:32:29.830Z,1.27
2022-12-26T18:34:57.747Z,1.57
2022-12-26T18:37:28.399Z,1.10
2022-12-26T18:39:55.731Z,1.37
2022-12-26T18:42:26.783Z,1.47
2022-12-26T18:44:54.773Z,1.60
2022-12-26T18:47:22.867Z,1.40
2022-12-26T18:49:50.514Z,1.60
2022-12-26T18:52:18.371Z,1.80
2022-12-26T18:54:45.984Z,1.50
2022-12-26T18:57:19.244Z,1.43
2022-12-26T18:59:48.508Z,1.33
2022-12-26T19:02:18.743Z,1.40
2022-12-26T19:04:48.726Z,1.17
2022-12-26T19:07:20.723Z,1.37
2022-12-26T19:09:51.283Z,1.70
2022-12-26T19:12:18.694Z,1.60
2022-12-26T19:14:46.491Z,1.33
2022-12-26T19:17:14.445Z,1.30
2022-12-26T19:19:42.117Z,1.20
2022-12-26T19:22:10.107Z,1.47
2022-12-26T19:24:37.505Z,1.80
2022-12-26T19:27:05.300Z,1.30
2022-12-26T19:29:32.749Z,1.40
2022-12-26T19:32:00.211Z,1.70
2022-12-26T19:34:29.054Z,1.00
2022-12-26T19:36:56.627Z,1.40
2022-12-26T19:39:24.161Z,1.70
2022-12-26T19:41:51.568Z,1.53
2022-12-26T19:44:19.149Z,1.43
2022-12-26T19:46:47.864Z,1.20
2022-12-26T19:49:15.658Z,1.27
2022-12-26T19:51:43.063Z,1.47
2022-12-26T19:54:10.387Z,1.10
2022-12-26T19:56:37.695Z,1.30
2022-12-26T19:59:05.107Z,1.40
2022-12-26T20:01:33.394Z,1.33
2022-12-26T20:04:03.477Z,1.30
2022-12-26T20:06:32.576Z,1.30
2022-12-26T20:09:06.958Z,1.37
2022-12-26T20:11:37.497Z,1.50
2022-12-26T20:14:06.749Z,1.33
2022-12-26T20:19:23.859Z,1.27
2022-12-26T20:21:51.527Z,1.37
2022-12-26T20:24:21.580Z,1.10
2022-12-26T20:26:49.747Z,1.40
2022-12-26T20:29:17.913Z,1.40
2022-12-26T20:31:45.919Z,1.10
2022-12-26T20:34:13.641Z,1.40
2022-12-26T20:36:41.980Z,1.30
2022-12-26T20:39:15.268Z,1.40
2022-12-26T20:41:43.179Z,1.20
2022-12-26T20:44:13.991Z,1.27
2022-12-26T20:46:42.574Z,1.00
2022-12-26T20:49:10.409Z,1.17
2022-12-26T20:51:40.290Z,1.20
2022-12-26T20:54:09.823Z,1.20
2022-12-26T20:56:38.138Z,0.80
2022-12-26T20:59:07.382Z,1.00
2022-12-26T21:01:36.658Z,1.60
2022-12-26T21:04:04.281Z,1.20
2022-12-26T21:06:34.210Z,1.10
2022-12-26T21:09:01.860Z,1.50
2022-12-26T21:11:34.851Z,1.10
2022-12-26T21:14:05.905Z,1.10
2022-12-26T21:16:43.417Z,1.70
2022-12-26T21:19:15.437Z,0.90
2022-12-26T21:21:45.948Z,1.00
2022-12-26T21:24:17.151Z,1.13
2022-12-26T21:26:45.616Z,1.10
2022-12-26T21:29:17.217Z,1.23
2022-12-26T21:31:44.980Z,1.43
2022-12-26T21:34:15.134Z,1.20
2022-12-26T21:37:03.059Z,1.10
2022-12-26T21:39:31.178Z,1.20
2022-12-26T21:41:58.875Z,1.53
2022-12-26T21:44:26.446Z,1.43
2022-12-26T21:46:53.950Z,1.40
2022-12-26T21:49:21.455Z,1.37
2022-12-26T21:51:48.857Z,1.60
2022-12-26T21:54:34.929Z,1.37
2022-12-26T21:57:02.318Z,1.60
2022-12-26T21:59:48.269Z,1.60
2022-12-26T22:02:34.625Z,1.63
2022-12-26T22:05:02.403Z,0.93
2022-12-26T22:07:30.053Z,1.60
2022-12-26T22:09:57.536Z,1.50
2022-12-26T22:12:43.533Z,1.50
2022-12-26T22:15:31.475Z,1.63
2022-12-26T22:17:58.921Z,1.53
2022-12-26T22:20:26.250Z,1.10
2022-12-26T22:22:55.667Z,1.30
2022-12-26T22:25:23.075Z,1.10
2022-12-26T22:27:51.519Z,1.10
2022-12-26T22:30:18.965Z,1.30
2022-12-26T22:32:46.358Z,1.17
2022-12-26T22:35:18.558Z,1.53
2022-12-26T22:37:46.272Z,1.23
2022-12-26T22:40:13.874Z,1.20
2022-12-26T22:42:41.487Z,1.13
2022-12-26T22:45:09.275Z,1.33
2022-12-26T22:47:36.593Z,1.00
2022-12-26T22:50:04.218Z,1.43
2022-12-26T22:52:31.684Z,1.10
2022-12-26T22:54:59.142Z,1.40
2022-12-26T22:57:26.458Z,1.77
2022-12-26T23:00:10.759Z,1.20
2022-12-26T23:02:38.817Z,1.20
2022-12-26T23:05:08.962Z,1.47
2022-12-26T23:07:36.517Z,1.20
2022-12-26T23:10:06.123Z,1.40
2022-12-26T23:12:46.272Z,1.60
2022-12-26T23:15:17.492Z,0.97
2022-12-26T23:18:30.995Z,1.10
2022-12-26T23:21:21.395Z,1.23
2022-12-26T23:23:49.047Z,0.97
2022-12-26T23:26:16.480Z,1.63
2022-12-26T23:29:02.465Z,1.67
2022-12-26T23:31:30.131Z,1.67
2022-12-26T23:33:57.662Z,1.27
2022-12-26T23:36:25.067Z,1.60
2022-12-26T23:38:52.514Z,1.80
2022-12-26T23:41:19.926Z,1.53
2022-12-26T23:43:47.453Z,1.97
2022-12-26T23:46:15.006Z,1.73
2022-12-26T23:48:42.411Z,1.87
2022-12-26T23:51:09.842Z,1.70
2022-12-26T23:53:37.406Z,1.90
2022-12-26T23:56:08.784Z,1.83
2022-12-26T23:58:38.319Z,1.60
